Time;durP1;ratioP1;P1;durP2;ratioP2;P2;SDS_P1;SDS_P2;PMS_P1;PMS_P2;Temp;Humidity;BMP_temperature;BMP_pressure;BME280_temperature;BME280_humidity;BME280_pressure;Samples;Min_cycle;Max_cycle;Signal;HPM_P1;HPM_P2
2022/02/27 10:10:58;;;;;;;;;;;;;;;20.16;38.82;95491.59;1535076;19;1512;-67
2022/02/27 10:11:29;;;;;;;;;;;;;;;19.97;39.22;95493.88;1534848;19;1331;-70
2022/02/27 10:12:12;;;;;;;;;;;;;;;19.84;37.95;95496.41;1534964;19;1276;-71
2022/02/27 10:12:43;;;;;;;;;;;;;;;19.70;38.24;95489.31;1535286;19;2170;-68
2022/02/27 10:13:13;;;;;;;;;;;;;;;19.62;38.66;95486.72;1534809;19;1985;-67
2022/02/27 10:13:45;;;;;;;;;;;;;;;19.56;38.83;95490.97;1535862;19;838;-69
2022/02/27 10:14:26;;;;;;;;;;;;;;;19.50;38.59;95489.88;1535937;19;964;-67
2022/02/27 10:15:35;;;;;;;;;;;;;;;19.46;38.51;95491.22;1535736;19;1390;-61
2022/02/27 10:16:26;;;;;;;;;;;;;;;19.46;38.52;95491.22;1507493;19;11181;-63
2022/02/27 10:17:02;;;;;;;;;;;;;;;19.58;38.44;95483.63;491341;19;5012633;-62
2022/02/27 10:17:33;;;;;;;;;;;;;;;19.67;38.18;95482.50;1307234;19;3009006;-63
2022/02/27 10:18:13;;;;;;;;;;;;;;;19.72;38.39;95485.44;1535761;19;853;-62
2022/02/27 10:18:47;;;;;;;;;;;;;;;19.76;38.15;95489.38;1533872;19;1136;-61
2022/02/27 10:19:19;;;;;;;;;;;;;;;19.78;38.01;95489.19;1535746;19;1612;-61
2022/02/27 10:20:12;;;;;;;;;;;;;;;19.83;38.39;95492.09;1535256;19;1735;-61
2022/02/27 10:20:42;;;;;;;;;;;;;;;19.85;37.48;95484.75;1391112;19;81641;-61
2022/02/27 10:34:46;;;;;;;;;;;;;;;18.95;44.85;95496.50;3084250;28;11363;-67
2022/02/27 10:36:16;;;;;;;;;;;;;;;18.93;44.67;95493.22;3049087;28;12454;-68
2022/02/27 10:37:47;;;;;;;;;;;;;;;18.91;44.89;95486.44;3068279;28;11529;-66
2022/02/27 10:39:26;;;;;;;;;;;;;;;18.93;45.05;95490.56;3097980;28;11298;-68
2022/02/27 10:40:56;;;;;;;;;;;;;;;18.93;44.75;95482.59;3107477;28;818;-70
2022/02/27 10:56:34;;;;;;;;;;;;;;;21.23;30.83;95466.50;3170782;27;1296;-67
2022/02/27 10:58:05;;;;;;;;;;;;;;;20.36;31.94;95457.97;3162268;27;9855;-70
2022/02/27 10:59:37;;;;;;;;;;;;;;;19.91;33.07;95461.88;3136057;28;6015;-70
2022/02/27 11:01:09;;;;;;;;;;;;;;;19.68;33.62;95465.53;3113912;28;11039;-68
2022/02/27 11:02:39;;;;;;;;;;;;;;;19.57;33.78;95465.16;3143695;28;1427;-68
2022/02/27 11:04:11;;;;;;;;;;;;;;;19.52;33.68;95460.38;3116964;28;11449;-68
2022/02/27 11:05:43;;;;;;;;;;;;;;;19.52;33.67;95468.38;3131386;28;1212;-68
2022/02/27 11:07:13;;;;;;;;;;;;;;;19.53;33.39;95464.72;3010556;27;11441;-68
2022/02/27 11:08:44;;;;;;;;;;;;;;;19.51;33.39;95462.22;2979963;28;83143;-69
2022/02/27 11:10:18;;;;;;;;;;;;;;;19.52;33.42;95463.91;3098771;28;10920;-68
2022/02/27 11:11:49;;;;;;;;;;;;;;;19.53;33.29;95457.56;3144894;28;1579;-68
2022/02/27 11:13:20;;;;;;;;;;;;;;;19.54;33.30;95459.19;3156739;28;1542;-68
2022/02/27 11:14:50;;;;;;;;;;;;;;;19.55;33.25;95452.88;3157263;28;872;-67
2022/02/27 11:16:21;;;;;;;;;;;;;;;19.55;33.15;95447.56;3152207;28;1910;-69
2022/02/27 11:17:51;;;;;;;;;;;;;;;19.58;33.01;95446.34;3156705;28;1002;-67
2022/02/27 11:19:22;;;;;;;;;;;;;;;19.58;33.04;95454.34;3152426;28;1611;-67
2022/02/27 11:20:54;;;;;;;;;;;;;;;19.60;32.87;95456.78;3149152;28;1596;-68
2022/02/27 11:22:24;;;;;;;;;;;;;;;19.61;33.01;95455.78;3143392;28;1238;-67
2022/02/27 11:23:56;;;;;;;;;;;;;;;19.61;32.98;95459.28;3144557;28;814;-66
2022/02/27 11:25:27;;;;;;;;;;;;;;;19.62;32.78;95452.94;3144872;28;1665;-67
2022/02/27 11:26:57;;;;;;;;;;;;;;;19.62;32.72;95447.63;3145276;28;750;-69
2022/02/27 11:28:28;;;;;;;;;;;;;;;19.63;32.85;95446.59;3150121;28;1532;-70
2022/02/27 11:29:59;;;;;;;;;;;;;;;19.64;32.90;95434.13;3153782;28;931;-70
2022/02/27 11:31:29;;;;;;;;;;;;;;;19.70;32.74;95438.72;3150646;28;1671;-68
2022/02/27 11:33:05;;;;;;;;;;;;;;;19.70;32.68;95442.22;3144986;28;1003;-68
2022/02/27 11:34:40;;;;;;;;;;;;;;;19.72;32.71;95442.00;3149503;28;1591;-68
2022/02/27 11:36:23;;;;;;;;;;;;;;;19.70;32.70;95439.53;3146950;28;1907;-69
2022/02/27 11:37:53;;;;;;;;;;;;;;;19.69;32.67;95434.41;3143292;28;1231;-68
2022/02/27 11:41:13;;;;;;;;;;;;;;;19.69;32.52;95445.88;3154960;28;1550;-68
2022/02/27 11:42:50;;;;;;;;;;;;;;;19.69;32.61;95442.38;3156102;28;1324;-67
2022/02/27 11:44:30;;;;;;;;;;;;;;;19.70;32.47;95441.38;3156202;28;1008;-68
2022/02/27 11:46:00;;;;;;;;;;;;;;;19.74;32.65;95432.81;3156441;28;912;-68
2022/02/27 11:47:46;;;;;;;;;;;;;;;19.77;32.52;95418.31;3156969;28;810;-67
2022/02/27 11:49:20;;;;;;;;;;;;;;;19.76;32.63;95424.66;3151132;28;946;-70
2022/02/27 11:50:52;;;;;;;;;;;;;;;19.75;32.73;95429.16;3155088;28;1098;-67
2022/02/27 11:52:34;;;;;;;;;;;;;;;19.74;32.58;95426.69;3154687;28;1189;-67
2022/02/27 11:54:08;;;;;;;;;;;;;;;19.74;32.45;95424.84;3152082;28;1662;-67
2022/02/27 11:55:40;;;;;;;;;;;;;;;19.74;32.57;95418.69;3148775;28;1902;-69
2022/02/27 11:57:12;;;;;;;;;;;;;;;19.74;32.42;95418.69;3154936;28;1400;-68
2022/02/27 11:58:42;;;;;;;;;;;;;;;19.75;32.35;95415.00;3153145;28;1570;-70
2022/02/27 12:00:15;;;;;;;;;;;;;;;19.75;32.50;95415.84;3148689;28;1456;-69
2022/02/27 12:01:48;;;;;;;;;;;;;;;19.74;32.39;95414.19;3139629;28;994;-67
2022/02/27 12:03:31;;;;;;;;;;;;;;;19.76;32.36;95412.16;3143351;28;1829;-67
2022/02/27 12:05:03;;;;;;;;;;;;;;;19.76;32.48;95417.50;3144059;28;1730;-68
2022/02/27 12:06:52;;;;;;;;;;;;;;;19.76;32.36;95414.81;3143468;28;864;-68
2022/02/27 12:08:39;;;;;;;;;;;;;;;19.76;32.48;95414.81;3134545;28;1415;-67
2022/02/27 12:10:09;;;;;;;;;;;;;;;19.77;32.38;95415.66;3144528;28;1332;-67
2022/02/27 12:11:40;;;;;;;;;;;;;;;19.77;32.30;95412.97;3113607;28;11288;-67
2022/02/27 12:13:16;;;;;;;;;;;;;;;19.78;32.23;95419.97;3132599;28;1549;-67
2022/02/27 12:14:52;;;;;;;;;;;;;;;19.79;32.37;95410.97;3009501;28;11257;-68
2022/02/27 12:18:25;;;;;;;;;;;;;;;19.80;32.08;95401.94;4426021;19;12264;-67
2022/02/27 12:19:55;;;;;;;;;;;;;;;19.80;32.48;95407.28;4525665;19;13341;-67
2022/02/27 12:21:33;;;;;;;;;;;;;;;19.81;32.11;95402.78;4607700;19;948;-68
2022/02/27 12:23:04;;;;;;;;;;;;;;;19.81;32.21;95402.78;4594074;19;932;-67
2022/02/27 12:24:34;;;;;;;;;;;;;;;19.82;32.23;95404.44;4607771;19;1004;-68
2022/02/27 12:26:07;;;;;;;;;;;;;;;19.83;32.15;95398.91;4606858;19;11082;-68
2022/02/27 12:27:40;;;;;;;;;;;;;;;19.81;32.04;95400.97;4547250;19;117639;-67
2022/02/27 12:29:23;;;;;;;;;;;;;;;19.82;32.03;95401.78;3996373;19;13778;-66
2022/02/27 12:30:54;;;;;;;;;;;;;;;19.84;32.17;95403.22;3938819;19;6748;-66
2022/02/27 12:32:26;;;;;;;;;;;;;;;19.83;32.31;95398.09;3950358;19;5811;-67
2022/02/27 12:33:58;;;;;;;;;;;;;;;19.84;32.08;95402.41;3927876;19;5318;-66
2022/02/27 12:35:28;;;;;;;;;;;;;;;19.84;32.12;95407.75;4444670;19;6069;-67
2022/02/27 12:37:00;;;;;;;;;;;;;;;19.84;32.16;95403.22;4561619;19;5422;-68
2022/02/27 12:38:31;;;;;;;;;;;;;;;19.84;32.42;95407.75;4535297;19;12903;-67
2022/02/27 12:40:01;;;;;;;;;;;;;;;19.85;32.38;95412.84;4601793;19;1499;-68
2022/02/27 12:41:33;;;;;;;;;;;;;;;19.85;31.93;95412.84;4604868;19;1122;-68
2022/02/27 12:43:08;;;;;;;;;;;;;;;19.86;32.14;95414.50;4607577;19;923;-68
2022/02/27 12:44:40;;;;;;;;;;;;;;;19.86;32.15;95413.69;4596102;19;1214;-67
2022/02/27 12:46:10;;;;;;;;;;;;;;;19.86;32.08;95417.16;4609248;19;1624;-68
2022/02/27 12:47:41;;;;;;;;;;;;;;;19.87;31.95;95404.69;4606644;19;1108;-66
2022/02/27 12:51:00;;;;;;;;;;;;;;;19.87;32.00;95405.50;4609527;19;1725;-68
2022/02/27 12:52:37;;;;;;;;;;;;;;;19.88;32.03;95399.16;4609784;19;1425;-68
2022/02/27 12:54:11;;;;;;;;;;;;;;;19.87;32.20;95394.84;4611769;19;1568;-68
2022/02/27 12:55:42;;;;;;;;;;;;;;;19.88;32.25;95393.84;4595303;19;1543;-67
2022/02/27 12:57:12;;;;;;;;;;;;;;;19.88;32.29;95393.84;4608865;19;1925;-67
2022/02/27 12:58:43;;;;;;;;;;;;;;;19.88;31.92;95393.84;4608170;19;821;-68
2022/02/27 13:00:14;;;;;;;;;;;;;;;19.89;32.06;95390.16;4609208;19;1774;-67
2022/02/27 13:01:52;;;;;;;;;;;;;;;19.89;32.18;95384.00;4608384;19;916;-67
2022/02/27 13:03:22;;;;;;;;;;;;;;;19.90;31.99;95391.81;4608933;19;1723;-67
2022/02/27 13:04:56;;;;;;;;;;;;;;;19.89;32.18;95390.16;4607379;19;877;-66
2022/02/27 13:06:27;;;;;;;;;;;;;;;19.90;32.06;95393.66;4601507;19;1676;-68
2022/02/27 13:08:02;;;;;;;;;;;;;;;19.90;32.27;95394.47;4603054;19;928;-66
2022/02/27 13:09:35;;;;;;;;;;;;;;;19.90;32.24;95386.50;4606240;19;1235;-68
2022/02/27 13:11:05;;;;;;;;;;;;;;;19.91;31.81;95388.13;4607018;19;874;-67
2022/02/27 13:12:35;;;;;;;;;;;;;;;19.91;32.20;95389.97;4607587;19;1623;-67
2022/02/27 13:14:06;;;;;;;;;;;;;;;19.92;32.16;95386.28;4607395;19;853;-67
2022/02/27 13:15:36;;;;;;;;;;;;;;;19.92;32.10;95379.13;4609729;19;1686;-68
2022/02/27 13:17:14;;;;;;;;;;;;;;;19.89;32.11;95384.81;4606769;19;1804;-69
2022/02/27 13:18:45;;;;;;;;;;;;;;;19.91;31.87;95379.31;4595634;19;1763;-67
2022/02/27 13:20:19;;;;;;;;;;;;;;;19.91;31.87;95376.66;4608789;19;1150;-68
2022/02/27 13:21:50;;;;;;;;;;;;;;;19.91;32.02;95382.78;4611998;19;1644;-68
2022/02/27 13:23:26;;;;;;;;;;;;;;;19.91;32.02;95377.47;4608285;19;831;-68
2022/02/27 13:24:59;;;;;;;;;;;;;;;19.92;31.96;95387.13;4608198;19;1008;-66
2022/02/27 13:26:30;;;;;;;;;;;;;;;19.93;32.16;95377.28;4607260;19;1008;-67
2022/02/27 13:28:01;;;;;;;;;;;;;;;19.93;31.91;95377.28;4606035;19;1631;-67
2022/02/27 13:29:33;;;;;;;;;;;;;;;19.93;31.84;95375.44;4577752;19;1110;-67
2022/02/27 13:31:15;;;;;;;;;;;;;;;19.92;31.89;95373.81;4590447;19;960;-66
2022/02/27 13:32:51;;;;;;;;;;;;;;;19.93;32.14;95372.78;4589775;19;1305;-67
2022/02/27 13:34:23;;;;;;;;;;;;;;;19.94;32.14;95371.75;4589558;19;834;-67
2022/02/27 13:35:53;;;;;;;;;;;;;;;19.93;32.01;95367.47;4590247;19;869;-68
2022/02/27 13:37:25;;;;;;;;;;;;;;;19.95;32.21;95368.09;4588336;19;1845;-69
2022/02/27 13:38:55;;;;;;;;;;;;;;;19.95;31.85;95365.44;4588693;19;1442;-67
2022/02/27 13:40:27;;;;;;;;;;;;;;;19.94;31.77;95361.13;4574646;19;1171;-68
2022/02/27 13:41:57;;;;;;;;;;;;;;;19.94;31.83;95358.44;4590025;19;1666;-67
2022/02/27 13:43:27;;;;;;;;;;;;;;;19.96;31.91;95356.41;4590163;19;1677;-67
2022/02/27 13:44:59;;;;;;;;;;;;;;;19.95;32.17;95352.13;4590780;19;1489;-66
2022/02/27 13:46:29;;;;;;;;;;;;;;;19.96;32.02;95347.63;4590621;19;846;-69
2022/02/27 13:48:22;;;;;;;;;;;;;;;19.98;32.09;95362.38;4591064;19;1688;-67
2022/02/27 13:49:53;;;;;;;;;;;;;;;19.98;31.82;95356.25;4588711;19;1156;-67
2022/02/27 13:51:25;;;;;;;;;;;;;;;19.98;32.13;95364.22;4577087;19;924;-67
2022/02/27 13:53:03;;;;;;;;;;;;;;;19.97;31.83;95360.72;4590068;19;888;-67
2022/02/27 13:54:42;;;;;;;;;;;;;;;19.96;32.14;95359.09;4591850;19;1792;-67
2022/02/27 13:56:13;;;;;;;;;;;;;;;19.97;31.92;95368.72;4587839;19;1369;-69
2022/02/27 13:57:43;;;;;;;;;;;;;;;19.96;31.86;95359.09;4588985;19;1838;-68
2022/02/27 13:59:15;;;;;;;;;;;;;;;19.97;31.98;95360.72;4589800;19;1757;-67
2022/02/27 14:01:00;;;;;;;;;;;;;;;19.98;31.83;95361.56;4594279;19;1430;-67
2022/02/27 14:02:33;;;;;;;;;;;;;;;19.97;31.82;95360.72;4576633;19;1646;-67
2022/02/27 14:04:03;;;;;;;;;;;;;;;19.98;31.94;95361.56;4588908;19;967;-68
2022/02/27 14:05:35;;;;;;;;;;;;;;;19.99;32.08;95372.00;4589715;19;837;-67
2022/02/27 14:07:15;;;;;;;;;;;;;;;19.99;31.95;95365.88;4590272;19;1223;-66
2022/02/27 14:08:49;;;;;;;;;;;;;;;20.00;32.15;95365.66;4591885;19;1467;-66
2022/02/27 14:10:23;;;;;;;;;;;;;;;19.99;32.16;95363.22;4592174;19;1394;-66
2022/02/27 14:12:03;;;;;;;;;;;;;;;20.00;31.88;95364.84;4591199;19;1726;-67
2022/02/27 14:13:41;;;;;;;;;;;;;;;19.99;31.81;95361.38;4578207;19;1025;-67
2022/02/27 14:15:23;;;;;;;;;;;;;;;19.99;31.99;95364.03;4589413;19;1099;-68
2022/02/27 14:16:53;;;;;;;;;;;;;;;19.99;32.09;95364.03;4590201;19;1558;-68
2022/02/27 14:18:26;;;;;;;;;;;;;;;19.99;32.10;95356.03;4586101;19;1914;-69
2022/02/27 14:20:07;;;;;;;;;;;;;;;20.02;32.20;95362.00;4590528;19;1597;-65
2022/02/27 14:21:38;;;;;;;;;;;;;;;20.00;31.81;95359.50;4588719;19;1749;-66
2022/02/27 14:23:10;;;;;;;;;;;;;;;20.00;32.12;95357.66;4588963;19;964;-67
2022/02/27 14:24:47;;;;;;;;;;;;;;;20.02;32.11;95356.66;4576073;19;934;-68
2022/02/27 14:26:17;;;;;;;;;;;;;;;20.02;31.79;95352.16;4589922;19;988;-67
2022/02/27 14:28:02;;;;;;;;;;;;;;;20.03;32.13;95358.31;4587510;19;1399;-66
2022/02/27 14:29:34;;;;;;;;;;;;;;;20.03;32.08;95363.63;4587244;19;1124;-67
2022/02/27 14:31:05;;;;;;;;;;;;;;;20.02;31.74;95354.00;4590003;19;1696;-66
2022/02/27 14:32:35;;;;;;;;;;;;;;;20.04;31.91;95360.78;4589590;19;1620;-68
2022/02/27 14:34:11;;;;;;;;;;;;;;;20.04;32.05;95365.31;4588860;19;1712;-67
2022/02/27 14:35:42;;;;;;;;;;;;;;;20.04;31.88;95366.13;4575718;19;939;-68
2022/02/27 14:37:12;;;;;;;;;;;;;;;20.04;32.02;95370.63;4588886;19;1841;-68
2022/02/27 14:38:43;;;;;;;;;;;;;;;20.03;31.91;95369.78;4588828;19;953;-68
2022/02/27 14:40:15;;;;;;;;;;;;;;;20.04;32.08;95381.28;4588057;19;1007;-67
2022/02/27 14:41:46;;;;;;;;;;;;;;;20.04;32.13;95373.28;4586657;19;1607;-68
2022/02/27 14:43:18;;;;;;;;;;;;;;;20.02;31.84;95373.47;4588386;19;1167;-66
2022/02/27 14:44:48;;;;;;;;;;;;;;;20.03;31.91;95377.78;4588842;19;1394;-66
2022/02/27 14:46:18;;;;;;;;;;;;;;;20.05;31.87;95382.91;4576496;19;1602;-67
2022/02/27 14:47:49;;;;;;;;;;;;;;;20.04;31.98;95381.28;4586444;19;1159;-66
2022/02/27 14:49:20;;;;;;;;;;;;;;;20.05;31.93;95385.56;4587933;19;1000;-67
2022/02/27 14:50:51;;;;;;;;;;;;;;;20.04;31.85;95382.09;4588649;19;866;-67
2022/02/27 14:52:22;;;;;;;;;;;;;;;20.03;31.92;95383.09;4588831;19;1623;-67
2022/02/27 14:53:52;;;;;;;;;;;;;;;20.05;32.09;95382.91;4586913;19;1508;-66
2022/02/27 14:55:23;;;;;;;;;;;;;;;20.05;31.97;95380.25;4589284;19;1657;-68
2022/02/27 14:56:54;;;;;;;;;;;;;;;20.05;32.06;95382.91;4575845;19;1643;-69
2022/02/27 14:58:25;;;;;;;;;;;;;;;20.03;32.08;95380.44;4586828;19;1853;-67
2022/02/27 14:59:55;;;;;;;;;;;;;;;20.04;31.93;95382.09;4588189;19;1004;-67
2022/02/27 15:01:26;;;;;;;;;;;;;;;20.05;32.08;95380.25;4587643;19;1151;-67
2022/02/27 15:02:56;;;;;;;;;;;;;;;20.04;31.79;95387.44;4587314;19;897;-66
2022/02/27 15:04:27;;;;;;;;;;;;;;;20.05;32.09;95383.75;4587113;19;1306;-66
2022/02/27 15:05:58;;;;;;;;;;;;;;;20.06;31.84;95381.88;4587135;19;936;-66
2022/02/27 15:07:28;;;;;;;;;;;;;;;20.05;32.00;95386.41;4589855;19;1621;-67
2022/02/27 15:08:58;;;;;;;;;;;;;;;20.06;32.06;95389.88;4577022;19;1711;-66
2022/02/27 15:10:29;;;;;;;;;;;;;;;20.06;31.94;95388.03;4586084;19;1364;-70
2022/02/27 15:11:59;;;;;;;;;;;;;;;20.06;31.98;95382.72;4587279;19;1648;-67
2022/02/27 15:13:30;;;;;;;;;;;;;;;20.07;31.75;95380.91;4589368;19;1560;-67
2022/02/27 15:15:00;;;;;;;;;;;;;;;20.06;31.67;95387.22;4588504;19;1726;-68
2022/02/27 15:16:32;;;;;;;;;;;;;;;20.08;32.06;95385.19;4586713;19;1711;-66
2022/02/27 15:18:03;;;;;;;;;;;;;;;20.07;31.85;95380.91;4588278;19;1860;-67
2022/02/27 15:19:33;;;;;;;;;;;;;;;20.08;31.99;95390.53;4524788;19;12567;-67
2022/02/27 15:21:06;;;;;;;;;;;;;;;20.07;31.69;95392.38;4587045;19;1517;-68
2022/02/27 15:22:36;;;;;;;;;;;;;;;20.07;31.95;95386.22;4587524;19;1552;-68
2022/02/27 15:24:06;;;;;;;;;;;;;;;20.07;32.15;95388.88;4585544;19;1016;-67
2022/02/27 15:25:37;;;;;;;;;;;;;;;20.06;32.14;95388.03;4587494;19;1521;-68
2022/02/27 15:27:08;;;;;;;;;;;;;;;20.07;32.18;95378.22;4584289;19;1291;-67
2022/02/27 15:28:38;;;;;;;;;;;;;;;20.07;32.16;95383.56;4587335;19;1241;-67
2022/02/27 15:30:09;;;;;;;;;;;;;;;20.07;32.13;95386.22;4572856;19;1273;-66
2022/02/27 15:31:39;;;;;;;;;;;;;;;20.07;31.93;95386.22;4584240;19;1333;-67
2022/02/27 15:33:10;;;;;;;;;;;;;;;20.06;31.97;95379.22;4586911;19;1240;-68
2022/02/27 15:34:44;;;;;;;;;;;;;;;20.09;32.21;95390.31;4586137;19;1619;-67
2022/02/27 15:36:14;;;;;;;;;;;;;;;20.08;32.15;95390.53;4584379;19;1616;-68
2022/02/27 15:37:44;;;;;;;;;;;;;;;20.08;32.07;95387.84;4585144;19;1850;-67
2022/02/27 15:39:15;;;;;;;;;;;;;;;20.06;31.70;95381.88;4585331;19;1590;-67
2022/02/27 15:40:45;;;;;;;;;;;;;;;20.06;32.16;95382.72;4573144;19;945;-67
2022/02/27 15:42:15;;;;;;;;;;;;;;;20.06;32.22;95382.72;4583724;19;1468;-67
2022/02/27 15:43:46;;;;;;;;;;;;;;;20.08;31.80;95377.19;4587739;19;1508;-67
2022/02/27 15:45:16;;;;;;;;;;;;;;;20.09;31.93;95389.50;4587529;19;1451;-68
2022/02/27 15:46:46;;;;;;;;;;;;;;;20.13;32.11;95391.59;4580716;19;1153;-67
2022/02/27 15:48:17;;;;;;;;;;;;;;;20.12;31.69;95389.09;4583031;19;1547;-67
2022/02/27 15:49:47;;;;;;;;;;;;;;;20.11;32.06;95388.28;4587422;19;1153;-67
2022/02/27 15:51:20;;;;;;;;;;;;;;;20.10;31.77;95388.50;4586690;19;1617;-68
2022/02/27 15:52:50;;;;;;;;;;;;;;;20.11;31.83;95398.13;4572109;19;1138;-66
2022/02/27 15:54:21;;;;;;;;;;;;;;;20.09;31.73;95397.47;4586942;19;1617;-67
2022/02/27 15:55:51;;;;;;;;;;;;;;;20.08;32.13;95395.84;4583634;19;1279;-66
2022/02/27 15:57:22;;;;;;;;;;;;;;;20.08;32.04;95399.31;4581314;19;1860;-67
2022/02/27 15:58:52;;;;;;;;;;;;;;;20.10;32.14;95391.16;4585809;19;1121;-68
2022/02/27 16:00:22;;;;;;;;;;;;;;;20.09;31.83;95382.31;4585546;19;1658;-67
2022/02/27 16:01:53;;;;;;;;;;;;;;;20.09;32.09;95387.66;4582474;19;1212;-67
2022/02/27 16:03:23;;;;;;;;;;;;;;;20.10;32.10;95381.31;4571175;19;1114;-66
2022/02/27 16:04:54;;;;;;;;;;;;;;;20.10;31.70;95384.00;4584263;19;885;-67
2022/02/27 16:06:24;;;;;;;;;;;;;;;20.11;31.79;95388.28;4577987;19;1470;-67
2022/02/27 16:07:55;;;;;;;;;;;;;;;20.11;31.73;95396.28;4585112;19;1623;-67
2022/02/27 16:09:25;;;;;;;;;;;;;;;20.10;31.89;95399.16;4586079;19;1855;-67
2022/02/27 16:10:55;;;;;;;;;;;;;;;20.11;31.76;95398.13;4585218;19;1602;-66
2022/02/27 16:12:26;;;;;;;;;;;;;;;20.11;31.79;95398.13;4586727;19;1674;-67
2022/02/27 16:13:56;;;;;;;;;;;;;;;20.10;32.24;95402.63;4571647;19;1126;-67
2022/02/27 16:15:30;;;;;;;;;;;;;;;20.10;31.96;95393.81;4586760;19;1333;-68
2022/02/27 16:17:02;;;;;;;;;;;;;;;20.10;31.91;95399.16;4578405;19;1817;-67
2022/02/27 16:18:32;;;;;;;;;;;;;;;20.10;32.22;95396.47;4585093;19;1453;-67
2022/02/27 16:20:03;;;;;;;;;;;;;;;20.10;32.32;95396.47;4587824;19;1594;-67
2022/02/27 16:21:34;;;;;;;;;;;;;;;20.10;31.90;95396.47;4588681;19;1605;-67
2022/02/27 16:23:05;;;;;;;;;;;;;;;20.10;32.15;95407.13;4587022;19;1767;-66
2022/02/27 16:24:35;;;;;;;;;;;;;;;20.10;32.33;95407.13;4584332;19;940;-67
2022/02/27 16:26:06;;;;;;;;;;;;;;;20.11;31.92;95404.25;4567113;19;1506;-68
2022/02/27 16:27:36;;;;;;;;;;;;;;;20.11;32.11;95408.78;4583804;19;1789;-68
2022/02/27 16:29:07;;;;;;;;;;;;;;;20.11;31.85;95408.78;4587161;19;1620;-66
2022/02/27 16:30:37;;;;;;;;;;;;;;;20.11;31.91;95408.78;4584783;19;977;-67
2022/02/27 16:32:09;;;;;;;;;;;;;;;20.12;32.24;95400.59;4584275;19;1248;-68
2022/02/27 16:33:39;;;;;;;;;;;;;;;20.12;31.85;95402.41;4583981;19;902;-67
2022/02/27 16:35:10;;;;;;;;;;;;;;;20.12;32.17;95408.59;4585901;19;1702;-67
2022/02/27 16:36:40;;;;;;;;;;;;;;;20.12;32.01;95402.41;4567670;19;1818;-67
2022/02/27 16:38:10;;;;;;;;;;;;;;;20.12;31.92;95405.09;4585720;19;1849;-67
2022/02/27 16:39:41;;;;;;;;;;;;;;;20.11;31.86;95403.44;4584441;19;1387;-67
2022/02/27 16:41:11;;;;;;;;;;;;;;;20.11;31.88;95398.94;4584157;19;1629;-67
2022/02/27 16:42:42;;;;;;;;;;;;;;;20.13;32.16;95404.91;4586085;19;1635;-67
2022/02/27 16:44:12;;;;;;;;;;;;;;;20.12;32.15;95405.94;4587167;19;1621;-67
2022/02/27 16:45:42;;;;;;;;;;;;;;;20.11;31.91;95403.44;4582547;19;1431;-67
2022/02/27 16:47:13;;;;;;;;;;;;;;;20.13;32.19;95404.91;4565578;19;1534;-68
2022/02/27 16:48:43;;;;;;;;;;;;;;;20.14;32.08;95408.38;4585300;19;1594;-69
2022/02/27 16:50:14;;;;;;;;;;;;;;;20.12;32.13;95405.09;4586068;19;1571;-68
2022/02/27 16:51:44;;;;;;;;;;;;;;;20.13;32.29;95406.75;4586595;19;1467;-68
2022/02/27 16:53:15;;;;;;;;;;;;;;;20.12;32.13;95413.06;4582265;19;1171;-67
2022/02/27 16:54:45;;;;;;;;;;;;;;;20.12;31.77;95402.41;4583342;19;1567;-67
2022/02/27 16:56:19;;;;;;;;;;;;;;;20.12;31.83;95410.41;4575405;19;1496;-67
2022/02/27 16:57:50;;;;;;;;;;;;;;;20.12;31.92;95405.09;4572718;19;1833;-69
2022/02/27 16:59:20;;;;;;;;;;;;;;;20.11;32.28;95409.59;4579238;19;1512;-68
2022/02/27 17:00:51;;;;;;;;;;;;;;;20.12;31.96;95410.41;4585026;19;1699;-68
2022/02/27 17:02:22;;;;;;;;;;;;;;;20.11;31.84;95417.59;4583813;19;1444;-67
2022/02/27 17:03:52;;;;;;;;;;;;;;;20.12;32.04;95411.25;4584946;19;1707;-69
2022/02/27 17:05:22;;;;;;;;;;;;;;;20.14;31.85;95419.03;4589881;19;1538;-67
2022/02/27 17:06:53;;;;;;;;;;;;;;;20.14;32.25;95419.84;4584313;19;1567;-68
2022/02/27 17:08:23;;;;;;;;;;;;;;;20.14;32.18;95425.19;4587761;19;1645;-68
2022/02/27 17:09:53;;;;;;;;;;;;;;;20.15;32.00;95426.00;4576513;19;1412;-67
2022/02/27 17:11:24;;;;;;;;;;;;;;;20.14;31.86;95419.84;4587058;19;1749;-68
2022/02/27 17:12:54;;;;;;;;;;;;;;;20.12;31.92;95421.06;4587529;19;892;-67
2022/02/27 17:14:25;;;;;;;;;;;;;;;20.16;32.01;95423.16;4587738;19;1596;-67
2022/02/27 17:15:59;;;;;;;;;;;;;;;20.15;32.05;95420.69;4586743;19;1697;-66
2022/02/27 17:17:30;;;;;;;;;;;;;;;20.13;32.04;95422.72;4584211;19;1837;-67
2022/02/27 17:19:00;;;;;;;;;;;;;;;20.13;32.02;95420.88;4587529;19;1520;-67
2022/02/27 17:20:30;;;;;;;;;;;;;;;20.14;32.15;95422.53;4577258;19;1710;-66
2022/02/27 17:22:01;;;;;;;;;;;;;;;20.14;32.05;95427.84;4588058;19;1218;-68
2022/02/27 17:23:31;;;;;;;;;;;;;;;20.13;32.12;95420.88;4587910;19;1710;-68
2022/02/27 17:25:06;;;;;;;;;;;;;;;20.14;31.78;95424.38;4589236;19;1357;-67
2022/02/27 17:26:37;;;;;;;;;;;;;;;20.15;31.88;95420.69;4584762;19;1243;-67
2022/02/27 17:28:08;;;;;;;;;;;;;;;20.13;31.94;95417.41;4586772;19;1163;-67
2022/02/27 17:29:38;;;;;;;;;;;;;;;20.14;31.82;95427.84;4588484;19;1733;-67
2022/02/27 17:31:08;;;;;;;;;;;;;;;20.14;32.01;95414.53;4575292;19;1688;-67
2022/02/27 17:32:39;;;;;;;;;;;;;;;20.14;32.15;95414.53;4585993;19;1312;-67
2022/02/27 17:34:10;;;;;;;;;;;;;;;20.14;32.21;95414.53;4587588;19;1693;-67
2022/02/27 17:35:40;;;;;;;;;;;;;;;20.16;31.92;95427.69;4588183;19;1709;-67
2022/02/27 17:37:10;;;;;;;;;;;;;;;20.15;32.07;95416.19;4581488;19;1861;-67
2022/02/27 17:38:41;;;;;;;;;;;;;;;20.14;31.83;95421.72;4588367;19;1510;-67
2022/02/27 17:40:11;;;;;;;;;;;;;;;20.15;31.97;95420.69;4588696;19;1372;-67
2022/02/27 17:41:42;;;;;;;;;;;;;;;20.14;31.77;95422.53;4587962;19;1782;-66
2022/02/27 17:43:12;;;;;;;;;;;;;;;20.15;31.90;95420.69;4576262;19;1584;-67
2022/02/27 17:44:43;;;;;;;;;;;;;;;20.13;31.97;95420.88;4587542;19;853;-67
2022/02/27 17:46:13;;;;;;;;;;;;;;;20.13;32.17;95423.56;4584385;19;1695;-68
2022/02/27 17:47:43;;;;;;;;;;;;;;;20.14;31.82;95425.19;4587985;19;1399;-67
2022/02/27 17:49:14;;;;;;;;;;;;;;;20.15;31.93;95420.69;4588178;19;959;-68
2022/02/27 17:50:45;;;;;;;;;;;;;;;20.15;32.06;95423.34;4587965;19;919;-67
2022/02/27 17:52:15;;;;;;;;;;;;;;;20.14;32.08;95435.03;4587612;19;929;-67
2022/02/27 17:53:48;;;;;;;;;;;;;;;20.15;31.77;95436.66;4573739;19;1675;-67
2022/02/27 17:55:18;;;;;;;;;;;;;;;20.15;32.30;95431.34;4586697;19;1360;-67
2022/02/27 17:56:49;;;;;;;;;;;;;;;20.14;31.86;95435.03;4582807;19;1187;-67
2022/02/27 17:58:20;;;;;;;;;;;;;;;20.15;31.87;95431.34;4586527;19;1841;-67
2022/02/27 17:59:50;;;;;;;;;;;;;;;20.15;32.04;95431.34;4589349;19;1616;-67
2022/02/27 18:01:20;;;;;;;;;;;;;;;20.15;31.84;95431.34;4585165;19;1221;-67
2022/02/27 18:02:51;;;;;;;;;;;;;;;20.16;31.87;95430.34;4588414;19;2041;-67
2022/02/27 18:04:21;;;;;;;;;;;;;;;20.17;32.14;95431.97;4574376;19;1012;-68
2022/02/27 18:05:51;;;;;;;;;;;;;;;20.15;32.13;95432.19;4587474;19;1373;-67
2022/02/27 18:07:22;;;;;;;;;;;;;;;20.14;31.83;95427.84;4581806;19;1409;-68
2022/02/27 18:08:54;;;;;;;;;;;;;;;20.14;32.03;95430.50;4585703;19;1837;-67
2022/02/27 18:10:24;;;;;;;;;;;;;;;20.14;31.95;95427.84;4587786;19;1403;-68
2022/02/27 18:11:54;;;;;;;;;;;;;;;20.15;32.06;95426.84;4588059;19;1600;-67
2022/02/27 18:13:26;;;;;;;;;;;;;;;20.16;31.79;95428.50;4585724;19;928;-68
2022/02/27 18:14:58;;;;;;;;;;;;;;;20.16;32.18;95427.69;4576383;19;1699;-66
2022/02/27 18:16:28;;;;;;;;;;;;;;;20.15;31.98;95420.69;4579416;19;1431;-64
2022/02/27 18:17:59;;;;;;;;;;;;;;;20.21;32.11;95426.09;4586881;19;1816;-66
2022/02/27 18:19:30;;;;;;;;;;;;;;;20.22;31.82;95432.22;4511346;19;12826;-67
2022/02/27 18:21:00;;;;;;;;;;;;;;;20.22;31.96;95432.22;4590705;19;1745;-66
2022/02/27 18:22:31;;;;;;;;;;;;;;;20.19;31.96;95433.44;4588164;19;977;-66
2022/02/27 18:24:01;;;;;;;;;;;;;;;20.20;32.05;95431.59;4588685;19;1715;-67
2022/02/27 18:25:32;;;;;;;;;;;;;;;20.20;32.28;95440.41;4588662;19;1637;-67
2022/02/27 18:27:02;;;;;;;;;;;;;;;20.19;32.06;95432.63;4577336;19;1572;-67
2022/02/27 18:28:33;;;;;;;;;;;;;;;20.18;32.32;95437.13;4589763;19;1694;-67
2022/02/27 18:30:04;;;;;;;;;;;;;;;20.19;32.09;95432.63;4589780;19;1611;-68
2022/02/27 18:31:35;;;;;;;;;;;;;;;20.19;31.92;95440.59;4589045;19;1440;-67
2022/02/27 18:33:05;;;;;;;;;;;;;;;20.21;32.12;95435.91;4587438;19;1686;-68
2022/02/27 18:34:35;;;;;;;;;;;;;;;20.23;31.93;95428.53;4590277;19;1725;-68